createdAt,value
2023-03-11T00:00:08.383Z,52.8
2023-03-11T00:01:09.265Z,52.8
2023-03-11T00:02:10.222Z,52.7
2023-03-11T00:03:11.176Z,52.8
2023-03-11T00:04:12.223Z,53.1
2023-03-11T00:05:13.298Z,53.3
2023-03-11T00:06:14.257Z,53.4
2023-03-11T00:07:15.186Z,53.3
2023-03-11T00:08:16.268Z,52.9
2023-03-11T00:09:17.167Z,53
2023-03-11T00:10:18.186Z,53.2
2023-03-11T00:11:19.230Z,53.2
2023-03-11T00:12:20.188Z,53
2023-03-11T00:13:21.155Z,52.9
2023-03-11T00:14:22.147Z,52.9
2023-03-11T00:15:23.168Z,52.8
2023-03-11T00:16:24.198Z,52.9
2023-03-11T00:17:25.191Z,53
2023-03-11T00:18:26.323Z,52.8
2023-03-11T00:19:27.206Z,52.5
2023-03-11T00:20:28.172Z,52.3
2023-03-11T00:21:29.234Z,52.4
2023-03-11T00:22:30.168Z,52.6
2023-03-11T00:23:31.186Z,52.7
2023-03-11T00:24:32.190Z,52.3
2023-03-11T00:25:33.206Z,51.9
2023-03-11T00:26:34.208Z,52
2023-03-11T00:27:35.178Z,51.8
2023-03-11T00:28:36.209Z,51.7
2023-03-11T00:29:37.168Z,51.5
2023-03-11T00:30:38.290Z,51.3
2023-03-11T00:31:39.185Z,51.1
2023-03-11T00:32:40.253Z,51
2023-03-11T00:33:41.246Z,50.9
2023-03-11T00:34:42.206Z,51
2023-03-11T00:35:43.268Z,51.2
2023-03-11T00:36:44.211Z,51.2
2023-03-11T00:37:45.264Z,51
2023-03-11T00:38:46.254Z,50.9
2023-03-11T00:39:47.206Z,50.9
2023-03-11T00:40:48.256Z,50.9
2023-03-11T00:41:49.244Z,50.7
2023-03-11T00:42:50.273Z,50.6
2023-03-11T00:43:51.225Z,50.3
2023-03-11T00:44:52.081Z,50.3
2023-03-11T00:45:53.230Z,50.5
2023-03-11T00:46:54.218Z,50.5
2023-03-11T00:47:55.238Z,50.5
2023-03-11T00:48:56.155Z,50.2
2023-03-11T00:49:57.205Z,50.1
2023-03-11T00:50:58.309Z,50.1
2023-03-11T00:51:59.267Z,49.6
2023-03-11T00:53:00.366Z,50
2023-03-11T00:54:01.235Z,50.4
2023-03-11T00:55:02.230Z,50.5
2023-03-11T00:56:03.224Z,50.5
2023-03-11T00:57:04.287Z,50.8
2023-03-11T00:58:05.251Z,51
2023-03-11T00:59:06.244Z,51.1
2023-03-11T01:00:07.245Z,51.2
2023-03-11T01:01:08.296Z,51.3
2023-03-11T01:02:09.213Z,51.6
2023-03-11T01:03:10.270Z,51.7
2023-03-11T01:04:11.258Z,51.8
2023-03-11T01:05:12.264Z,52.4
2023-03-11T01:06:13.124Z,53.2
2023-03-11T01:07:14.233Z,53.9
2023-03-11T01:08:15.183Z,54.5
2023-03-11T01:09:16.287Z,55.1
2023-03-11T01:10:17.321Z,55.6
2023-03-11T01:11:18.183Z,56
2023-03-11T01:12:19.222Z,56.2
2023-03-11T01:13:20.244Z,56.4
2023-03-11T01:14:21.223Z,57
2023-03-11T01:15:22.194Z,57.1
2023-03-11T01:16:23.438Z,57.2
2023-03-11T01:17:24.193Z,57.9
2023-03-11T01:18:25.241Z,58.6
2023-03-11T01:19:26.283Z,58.6
2023-03-11T01:20:27.213Z,57.6
2023-03-11T01:21:28.276Z,57.1
2023-03-11T01:22:29.224Z,56.8
2023-03-11T01:23:30.256Z,56.9
2023-03-11T01:24:31.216Z,57.1
2023-03-11T01:25:32.242Z,57.1
2023-03-11T01:26:33.287Z,57.2
2023-03-11T01:27:34.183Z,57.1
2023-03-11T01:28:35.285Z,56.9
2023-03-11T01:29:36.276Z,57
2023-03-11T01:30:37.285Z,57
2023-03-11T01:31:38.184Z,57.5
2023-03-11T01:32:39.439Z,58.1
2023-03-11T01:33:40.262Z,58.1
2023-03-11T01:34:41.333Z,58.2
2023-03-11T01:35:42.305Z,58.6
2023-03-11T01:36:43.311Z,58.8
2023-03-11T01:37:44.211Z,59.2
2023-03-11T01:38:45.241Z,59.4
2023-03-11T01:39:46.286Z,59.5
2023-03-11T01:40:47.287Z,59.7
2023-03-11T01:41:48.284Z,60.1
2023-03-11T01:42:49.223Z,60.3
2023-03-11T01:43:50.802Z,60.2
2023-03-11T01:44:52.305Z,59.9
2023-03-11T01:45:53.240Z,59.7
2023-03-11T01:46:54.383Z,59.8
2023-03-11T01:47:55.220Z,59.9
2023-03-11T01:48:56.295Z,60.1
2023-03-11T01:49:57.240Z,60.2
2023-03-11T01:50:58.281Z,60.2
2023-03-11T01:51:59.259Z,59.9
2023-03-11T01:53:00.236Z,59.7
2023-03-11T01:54:01.339Z,59.5
2023-03-11T01:55:02.302Z,59.4
2023-03-11T01:56:03.179Z,59.3
2023-03-11T01:57:04.399Z,59.2
2023-03-11T01:58:05.190Z,59.3
2023-03-11T01:59:06.139Z,59.3
2023-03-11T02:00:07.242Z,59.2
2023-03-11T02:01:08.267Z,59
2023-03-11T02:02:09.366Z,58.9
2023-03-11T02:03:10.419Z,58.8
2023-03-11T02:04:11.241Z,58.7
2023-03-11T02:05:12.229Z,58.5
2023-03-11T02:06:13.272Z,58.3
2023-03-11T02:07:14.240Z,58
2023-03-11T02:08:15.301Z,57.8
2023-03-11T02:09:16.282Z,57.8
2023-03-11T02:10:17.266Z,57.5
2023-03-11T02:11:18.179Z,57.2
2023-03-11T02:12:19.278Z,57.5
2023-03-11T02:13:20.303Z,57.9
2023-03-11T02:14:21.262Z,58.1
2023-03-11T02:15:22.163Z,57.8
2023-03-11T02:16:23.348Z,57.9
2023-03-11T02:17:24.264Z,58.1
2023-03-11T02:18:25.284Z,58.3
2023-03-11T02:19:26.284Z,58.7
2023-03-11T02:20:27.196Z,58.7
2023-03-11T02:21:28.225Z,59.1
2023-03-11T02:22:29.358Z,59.5
2023-03-11T02:23:30.236Z,59.4
2023-03-11T02:24:31.290Z,59.3
2023-03-11T02:25:32.155Z,59.3
2023-03-11T02:26:33.262Z,58.8
2023-03-11T02:27:34.267Z,58.6
2023-03-11T02:28:35.270Z,58.7
2023-03-11T02:29:36.287Z,58.6
2023-03-11T02:30:37.327Z,58.7
2023-03-11T02:31:38.522Z,59.2
2023-03-11T02:32:39.310Z,59.4
2023-03-11T02:33:40.308Z,59.1
2023-03-11T02:34:41.311Z,58.8
2023-03-11T02:35:42.349Z,58.3
2023-03-11T02:36:43.338Z,58.2
2023-03-11T02:37:44.208Z,57.9
2023-03-11T02:38:45.336Z,57.7
2023-03-11T02:39:46.271Z,57.4
2023-03-11T02:40:47.275Z,57.7
2023-03-11T02:41:48.333Z,57.8
2023-03-11T02:42:49.310Z,57.5
2023-03-11T02:43:50.300Z,57.4
2023-03-11T02:44:51.250Z,57.3
2023-03-11T02:45:52.309Z,56.4
2023-03-11T02:46:53.407Z,56.4
2023-03-11T02:47:54.266Z,56.5
2023-03-11T02:48:55.286Z,56.5
2023-03-11T02:49:56.322Z,56.5
2023-03-11T02:50:57.266Z,56.4
2023-03-11T02:51:58.344Z,56.4
2023-03-11T02:52:59.283Z,56.4
2023-03-11T02:54:00.274Z,56.4
2023-03-11T02:55:01.283Z,56.6
2023-03-11T02:56:02.309Z,57
2023-03-11T02:57:03.202Z,57
2023-03-11T02:58:04.452Z,57.1
2023-03-11T02:59:05.272Z,57
2023-03-11T03:00:06.218Z,57.3
2023-03-11T03:01:07.383Z,57.8
2023-03-11T03:02:08.322Z,58.8
2023-03-11T03:03:09.370Z,59
2023-03-11T03:04:10.289Z,59.1
2023-03-11T03:05:11.230Z,58.7
2023-03-11T03:06:12.349Z,58.8
2023-03-11T03:07:13.280Z,58.7
2023-03-11T03:08:14.325Z,57.9
2023-03-11T03:09:15.319Z,57.3
2023-03-11T03:10:16.271Z,57.6
2023-03-11T03:11:17.349Z,57.6
2023-03-11T03:12:18.306Z,57.2
2023-03-11T03:13:19.316Z,56.4
2023-03-11T03:14:20.248Z,56.6
2023-03-11T03:15:21.368Z,57
2023-03-11T03:16:22.452Z,56.6
2023-03-11T03:17:23.327Z,56.5
2023-03-11T03:18:24.261Z,56.9
2023-03-11T03:19:25.349Z,56.3
2023-03-11T03:20:26.268Z,55.8
2023-03-11T03:21:27.241Z,55.1
2023-03-11T03:22:28.288Z,55.1
2023-03-11T03:23:29.305Z,55.3
2023-03-11T03:24:30.227Z,55.3
2023-03-11T03:25:31.308Z,55.1
2023-03-11T03:26:32.316Z,55
2023-03-11T03:27:33.269Z,55.4
2023-03-11T03:28:34.281Z,55.7
2023-03-11T03:29:35.285Z,55.4
2023-03-11T03:30:36.309Z,55.3
2023-03-11T03:31:37.343Z,55.3
2023-03-11T03:32:38.297Z,54.9
2023-03-11T03:33:39.285Z,55
2023-03-11T03:34:40.301Z,55.1
2023-03-11T03:35:41.353Z,55
2023-03-11T03:36:42.302Z,54.6
2023-03-11T03:37:43.284Z,54.6
2023-03-11T03:38:44.408Z,54.6
2023-03-11T03:39:45.304Z,54.1
2023-03-11T03:40:46.248Z,53.8
2023-03-11T03:41:47.276Z,54.2
2023-03-11T03:42:48.282Z,53.9
2023-03-11T03:43:49.265Z,53.9
2023-03-11T03:44:50.282Z,54.1
2023-03-11T03:45:51.329Z,54.5
2023-03-11T03:46:52.321Z,54.3
2023-03-11T03:47:53.322Z,54.8
2023-03-11T03:48:54.282Z,55.3
2023-03-11T03:49:55.280Z,55.5
2023-03-11T03:50:56.315Z,54.9
2023-03-11T03:51:57.331Z,54.7
2023-03-11T03:52:58.262Z,54.4
2023-03-11T03:53:59.302Z,54.4
2023-03-11T03:55:00.282Z,54.5
2023-03-11T03:56:01.283Z,54.9
2023-03-11T03:57:02.352Z,54.2
2023-03-11T03:58:03.390Z,53.8
2023-03-11T03:59:04.645Z,54.6
2023-03-11T04:00:05.312Z,55
2023-03-11T04:01:06.385Z,55
2023-03-11T04:02:07.354Z,55.2
2023-03-11T04:03:08.379Z,55.5
2023-03-11T04:04:09.289Z,55.9
2023-03-11T04:05:10.325Z,56
2023-03-11T04:06:11.320Z,55.7
2023-03-11T04:07:12.326Z,54.9
2023-03-11T04:08:13.288Z,54.5
2023-03-11T04:09:14.283Z,54.4
2023-03-11T04:10:15.369Z,54.3
2023-03-11T04:11:16.351Z,54.5
2023-03-11T04:12:17.387Z,54.4
2023-03-11T04:13:18.348Z,54.8
2023-03-11T04:14:19.307Z,55.7
2023-03-11T04:15:20.371Z,56.1
2023-03-11T04:16:21.441Z,56.1
2023-03-11T04:17:22.346Z,55.8
2023-03-11T04:18:23.403Z,55.6
2023-03-11T04:19:24.290Z,55.5
2023-03-11T04:20:25.310Z,55.6
2023-03-11T04:21:26.327Z,55.8
2023-03-11T04:22:27.337Z,55.8
2023-03-11T04:23:28.336Z,55.6
2023-03-11T04:24:29.292Z,55.2
2023-03-11T04:25:30.348Z,55.4
2023-03-11T04:26:31.333Z,55.6
2023-03-11T04:27:32.334Z,56.1
2023-03-11T04:28:33.369Z,56.5
2023-03-11T04:29:34.365Z,56.8
2023-03-11T04:30:35.278Z,57
2023-03-11T04:31:36.307Z,57.5
2023-03-11T04:32:37.435Z,57
2023-03-11T04:33:38.343Z,57.6
2023-03-11T04:34:39.323Z,57.9
2023-03-11T04:35:40.344Z,58.1
2023-03-11T04:36:41.225Z,58.3
2023-03-11T04:37:42.422Z,57.9
2023-03-11T04:38:43.449Z,58.1
2023-03-11T04:39:44.325Z,58.2
2023-03-11T04:40:45.366Z,58.2
2023-03-11T04:41:46.372Z,58.2
2023-03-11T04:42:47.308Z,58.2
2023-03-11T04:43:48.305Z,58.6
2023-03-11T04:44:49.382Z,58.8
2023-03-11T04:45:50.370Z,59.2
2023-03-11T04:46:51.420Z,59.5
2023-03-11T04:47:52.418Z,59.4
2023-03-11T04:48:53.341Z,59.2
2023-03-11T04:49:54.331Z,59.1
2023-03-11T04:50:55.400Z,58.5
2023-03-11T04:51:56.366Z,58
2023-03-11T04:52:57.321Z,58.6
2023-03-11T04:53:58.360Z,59.3
2023-03-11T04:54:59.339Z,59.6
2023-03-11T04:56:00.395Z,59.7
2023-03-11T04:57:01.321Z,58.5
2023-03-11T04:58:02.385Z,59
2023-03-11T04:59:03.311Z,59.1
2023-03-11T05:00:04.802Z,59.4
2023-03-11T05:01:06.403Z,59.8
2023-03-11T05:02:07.243Z,59.5
2023-03-11T05:03:08.417Z,59.4
2023-03-11T05:04:09.362Z,59.8
2023-03-11T05:05:10.343Z,60.1
2023-03-11T05:06:11.300Z,60.4
2023-03-11T05:07:12.341Z,60.7
2023-03-11T05:08:13.319Z,60.9
2023-03-11T05:09:14.266Z,60.7
2023-03-11T05:10:15.464Z,60.6
2023-03-11T05:11:16.320Z,60.2
2023-03-11T05:12:17.313Z,60.1
2023-03-11T05:13:18.344Z,60.1
2023-03-11T05:14:19.371Z,59.8
2023-03-11T05:15:20.400Z,59.7
2023-03-11T05:16:21.294Z,59.9
2023-03-11T05:17:22.340Z,59.8
2023-03-11T05:18:23.273Z,59.8
2023-03-11T05:19:24.340Z,60
2023-03-11T05:20:25.432Z,60.2
2023-03-11T05:21:26.357Z,60.4
2023-03-11T05:22:27.359Z,60.5
2023-03-11T05:23:28.300Z,60.8
2023-03-11T05:24:29.319Z,60.6
2023-03-11T05:25:30.413Z,60.9
2023-03-11T05:26:31.264Z,61
2023-03-11T05:27:32.342Z,61.2
2023-03-11T05:28:33.412Z,61.3
2023-03-11T05:29:34.301Z,61.3
2023-03-11T05:30:35.340Z,61.1
2023-03-11T05:31:36.498Z,61
2023-03-11T05:32:37.340Z,60.9
2023-03-11T05:33:38.420Z,61.1
2023-03-11T05:34:39.377Z,61.3
2023-03-11T05:35:40.428Z,61.5
2023-03-11T05:36:41.369Z,61.7
2023-03-11T05:37:42.321Z,62.1
2023-03-11T05:38:43.367Z,62.5
2023-03-11T05:39:44.404Z,62.7
2023-03-11T05:40:45.386Z,62.8
2023-03-11T05:41:46.313Z,62.7
2023-03-11T05:42:47.404Z,62.4
2023-03-11T05:43:48.402Z,62.3
2023-03-11T05:44:49.305Z,62.6
2023-03-11T05:45:50.345Z,63
2023-03-11T05:46:51.328Z,63.4
2023-03-11T05:47:52.328Z,63.3
2023-03-11T05:48:53.344Z,63.2
2023-03-11T05:49:54.327Z,63.3
2023-03-11T05:50:55.394Z,63.1
2023-03-11T05:51:58.603Z,63.8
2023-03-11T05:52:57.365Z,64
2023-03-11T05:53:58.366Z,64.2
2023-03-11T05:54:59.429Z,64
2023-03-11T05:56:00.393Z,63.8
2023-03-11T05:57:01.423Z,63.7
2023-03-11T05:58:02.473Z,63.6
2023-03-11T05:59:03.474Z,63.7
2023-03-11T06:00:05.362Z,64
2023-03-11T06:01:06.382Z,64.1
2023-03-11T06:02:07.462Z,64.4
2023-03-11T06:03:08.369Z,64.5
2023-03-11T06:04:09.614Z,64.7
2023-03-11T06:05:13.042Z,64.7
2023-03-11T06:06:11.322Z,64.5
2023-03-11T06:07:12.363Z,64.6
2023-03-11T06:08:13.345Z,64.8
2023-03-11T06:09:14.366Z,64.9
2023-03-11T06:10:15.341Z,65
2023-03-11T06:11:16.330Z,65
2023-03-11T06:12:17.324Z,65.1
2023-03-11T06:13:18.342Z,65.2
2023-03-11T06:14:19.390Z,65.8
2023-03-11T06:15:20.401Z,66.3
2023-03-11T06:16:21.468Z,66.3
2023-03-11T06:17:22.385Z,66.2
2023-03-11T06:18:23.440Z,66
2023-03-11T06:19:24.360Z,66
2023-03-11T06:20:25.402Z,65.9
2023-03-11T06:21:26.360Z,66.1
2023-03-11T06:22:27.320Z,66.1
2023-03-11T06:23:28.360Z,66.2
2023-03-11T06:24:29.361Z,65.9
2023-03-11T06:25:30.302Z,65.8
2023-03-11T06:26:31.414Z,65.6
2023-03-11T06:27:32.510Z,65.4
2023-03-11T06:28:33.340Z,65.3
2023-03-11T06:29:34.293Z,65.3
2023-03-11T06:30:35.341Z,65.3
2023-03-11T06:31:36.400Z,66
2023-03-11T06:32:37.425Z,66.6
2023-03-11T06:33:38.450Z,66.7
2023-03-11T06:34:39.420Z,66.7
2023-03-11T06:35:40.398Z,66.4
2023-03-11T06:36:41.407Z,66.4
2023-03-11T06:37:42.362Z,66.6
2023-03-11T06:38:43.419Z,66.4
2023-03-11T06:39:44.426Z,66.4
2023-03-11T06:40:45.359Z,66.7
2023-03-11T06:41:46.340Z,66.1
2023-03-11T06:42:47.345Z,66.4
2023-03-11T06:43:48.400Z,66.9
2023-03-11T06:44:49.350Z,67.3
2023-03-11T06:45:50.417Z,67.7
2023-03-11T06:46:51.403Z,67.9
2023-03-11T06:47:52.643Z,67.9
2023-03-11T06:48:53.488Z,67.8
2023-03-11T06:49:54.420Z,67.6
2023-03-11T06:50:55.336Z,68
2023-03-11T06:51:56.367Z,68
2023-03-11T06:52:57.362Z,68.2
2023-03-11T06:53:58.405Z,68.2
2023-03-11T06:54:59.320Z,67.8
2023-03-11T06:56:00.461Z,67.8
2023-03-11T06:57:01.449Z,67.7
2023-03-11T06:58:02.516Z,68.1
2023-03-11T06:59:03.420Z,68.3
2023-03-11T07:00:05.064Z,68.6
2023-03-11T07:01:06.500Z,68.4
2023-03-11T07:02:07.394Z,68.6
2023-03-11T07:03:08.343Z,68.9
2023-03-11T07:04:09.576Z,68.7
2023-03-11T07:05:10.500Z,68.6
2023-03-11T07:06:11.348Z,68.6
2023-03-11T07:09:06.551Z,68.6
2023-03-11T07:10:07.537Z,69.1
2023-03-11T07:11:08.272Z,69
2023-03-11T07:12:09.361Z,68.7
2023-03-11T07:13:10.411Z,69.4
2023-03-11T07:14:11.319Z,69.7
2023-03-11T07:15:12.331Z,69.7
2023-03-11T07:16:13.401Z,69.7
2023-03-11T07:17:14.400Z,69.7
2023-03-11T07:18:15.495Z,69.5
2023-03-11T07:19:16.470Z,69.3
2023-03-11T07:20:17.682Z,69
2023-03-11T07:21:18.925Z,69.2
2023-03-11T07:22:19.374Z,69.4
2023-03-11T07:23:20.505Z,69.5
2023-03-11T07:24:21.378Z,69.7
2023-03-11T07:25:22.524Z,70
2023-03-11T07:26:23.402Z,69.9
2023-03-11T07:27:24.379Z,69.8
2023-03-11T07:28:25.399Z,69.6
2023-03-11T07:29:26.534Z,68.9
2023-03-11T07:30:27.344Z,69.2
2023-03-11T07:31:28.429Z,69.5
2023-03-11T07:32:29.618Z,69.6
2023-03-11T07:33:32.162Z,70
2023-03-11T07:34:31.538Z,70
2023-03-11T07:35:32.546Z,70.1
2023-03-11T07:36:33.315Z,70.4
2023-03-11T07:37:34.294Z,70.5
2023-03-11T07:38:35.474Z,70.8
2023-03-11T07:39:36.456Z,71.1
2023-03-11T07:40:37.354Z,70.7
2023-03-11T07:41:38.447Z,71.1
2023-03-11T07:42:39.414Z,71.3
2023-03-11T07:43:40.441Z,71.3
2023-03-11T07:44:41.422Z,71.2
2023-03-11T07:45:42.460Z,71.4
2023-03-11T07:46:43.353Z,71.6
2023-03-11T07:47:44.580Z,70.8
2023-03-11T07:48:45.552Z,71
2023-03-11T07:49:46.453Z,71.1
2023-03-11T07:50:47.461Z,71
2023-03-11T07:51:48.397Z,70.9
2023-03-11T07:52:49.454Z,70.5
2023-03-11T07:53:50.433Z,70.6
2023-03-11T07:54:51.435Z,70.7
2023-03-11T07:55:52.413Z,70.6
2023-03-11T07:56:53.413Z,70.7
2023-03-11T07:57:54.375Z,70.7
2023-03-11T07:58:55.387Z,70.8
2023-03-11T07:59:56.333Z,70.7
2023-03-11T08:00:57.392Z,70.4
2023-03-11T08:01:58.437Z,70.6
2023-03-11T08:02:59.492Z,70.7
2023-03-11T08:04:00.651Z,70.8
2023-03-11T08:05:01.499Z,70.7
2023-03-11T08:06:02.378Z,70.1
2023-03-11T08:07:03.538Z,70
2023-03-11T08:08:05.133Z,70.2
2023-03-11T08:09:06.504Z,70.2
2023-03-11T08:10:07.494Z,69.9
2023-03-11T08:11:08.361Z,69.8
2023-03-11T08:12:09.457Z,69.7
2023-03-11T08:13:10.394Z,69.8
2023-03-11T08:14:11.303Z,69.9
2023-03-11T08:15:12.447Z,69.9
2023-03-11T08:16:13.647Z,70.3
2023-03-11T08:17:14.538Z,70.3
2023-03-11T08:18:15.555Z,70.2
2023-03-11T08:19:16.376Z,70.2
2023-03-11T08:20:17.393Z,70.2
2023-03-11T08:21:18.418Z,70.2
2023-03-11T08:22:19.412Z,70.1
2023-03-11T08:23:20.392Z,70.5
2023-03-11T08:24:21.415Z,70.6
2023-03-11T08:25:22.492Z,70.4
2023-03-11T08:26:23.672Z,70
2023-03-11T08:27:24.432Z,70.1
2023-03-11T08:28:25.472Z,70.4
2023-03-11T08:29:26.421Z,70.5
2023-03-11T08:30:27.604Z,70
2023-03-11T08:31:28.689Z,70
2023-03-11T08:32:29.460Z,70.1
2023-03-11T08:33:30.374Z,70.4
2023-03-11T08:34:31.414Z,70.3
2023-03-11T08:35:32.806Z,69.9
2023-03-11T08:36:33.536Z,69.6
2023-03-11T08:37:34.558Z,69.4
2023-03-11T08:38:35.414Z,69.4
2023-03-11T08:39:36.400Z,68.3
2023-03-11T08:40:37.485Z,68.6
2023-03-11T08:41:38.383Z,69.1
2023-03-11T08:42:39.555Z,69.7
2023-03-11T08:43:40.571Z,69.9
2023-03-11T08:44:41.555Z,70
2023-03-11T08:45:42.780Z,69.6
2023-03-11T08:46:43.787Z,69.6
2023-03-11T08:47:44.420Z,69.6
2023-03-11T08:48:45.411Z,69.6
2023-03-11T08:49:46.415Z,69.5
2023-03-11T08:50:54.154Z,69.3
2023-03-11T08:51:49.373Z,69
2023-03-11T08:52:50.432Z,69
2023-03-11T08:53:51.510Z,69
2023-03-11T08:54:52.402Z,69.2
2023-03-11T08:55:53.946Z,69
2023-03-11T08:56:55.532Z,68.9
2023-03-11T08:57:56.365Z,68.7
2023-03-11T08:58:57.372Z,68.6
2023-03-11T08:59:58.460Z,68.6
2023-03-11T09:00:59.406Z,68.8
2023-03-11T09:02:00.427Z,69
2023-03-11T09:03:01.490Z,68.5
2023-03-11T09:04:02.440Z,68.6
2023-03-11T09:05:03.471Z,68.7
2023-03-11T09:06:04.598Z,68.7
2023-03-11T09:07:05.325Z,68.5
2023-03-11T09:08:06.399Z,68
2023-03-11T09:09:07.552Z,68.1
2023-03-11T09:10:08.473Z,68.3
2023-03-11T09:11:09.493Z,68.7
2023-03-11T09:12:10.451Z,69.3
2023-03-11T09:13:11.370Z,69.5
2023-03-11T09:14:12.395Z,69.6
2023-03-11T09:15:13.477Z,69.5
2023-03-11T09:16:14.498Z,69.7
2023-03-11T09:17:15.489Z,69.7
2023-03-11T09:18:16.394Z,69.7
2023-03-11T09:19:17.670Z,69.5
2023-03-11T09:20:18.397Z,69.1
2023-03-11T09:21:19.399Z,68.5
2023-03-11T09:22:20.512Z,68.3
2023-03-11T09:23:21.519Z,68.4
2023-03-11T09:24:22.448Z,68.3
2023-03-11T09:25:23.432Z,68.2
2023-03-11T09:26:24.476Z,68.2
2023-03-11T09:27:25.433Z,68.5
2023-03-11T09:28:26.443Z,67.8
2023-03-11T09:29:27.436Z,67.4
2023-03-11T09:30:28.805Z,67.5
2023-03-11T09:31:29.455Z,67.1
2023-03-11T09:32:30.531Z,66.7
2023-03-11T09:33:31.555Z,66.8
2023-03-11T09:34:32.593Z,66.9
2023-03-11T09:35:33.708Z,66.9
2023-03-11T09:36:34.417Z,66.9
2023-03-11T09:37:35.368Z,66.5
2023-03-11T09:38:36.776Z,66.4
2023-03-11T09:39:37.438Z,65.8
2023-03-11T09:40:38.465Z,66.1
2023-03-11T09:41:51.495Z,66.5
2023-03-11T09:42:40.534Z,67
2023-03-11T09:43:41.596Z,67.3
2023-03-11T09:44:42.402Z,67.5
2023-03-11T09:45:43.462Z,67.5
2023-03-11T09:46:44.558Z,66.7
2023-03-11T09:47:45.470Z,66.9
2023-03-11T09:48:46.423Z,67.3
2023-03-11T09:49:47.382Z,67.6
2023-03-11T09:50:48.708Z,68.1
2023-03-11T09:51:49.379Z,68.4
2023-03-11T09:52:50.756Z,68.9
2023-03-11T09:53:51.576Z,69.1
2023-03-11T09:54:52.413Z,69.5
2023-03-11T09:55:53.503Z,69.6
2023-03-11T09:56:54.457Z,69.5
2023-03-11T09:57:55.431Z,69.9
2023-03-11T09:58:56.363Z,69.7
2023-03-11T09:59:57.450Z,70
2023-03-11T10:00:58.435Z,70.2
2023-03-11T10:01:59.540Z,70.2
2023-03-11T10:03:00.470Z,70.1
2023-03-11T10:04:01.520Z,69.9
2023-03-11T10:06:51.451Z,70.1
2023-03-11T10:07:52.423Z,70
2023-03-11T10:08:53.461Z,68.9
2023-03-11T10:09:54.411Z,68.6
2023-03-11T10:10:55.430Z,68.6
2023-03-11T10:11:56.432Z,68.9
2023-03-11T10:12:57.438Z,68.7
2023-03-11T10:13:58.451Z,68.3
2023-03-11T10:14:59.489Z,68.5
2023-03-11T10:16:00.516Z,68.2
2023-03-11T10:17:01.427Z,68.3
2023-03-11T10:18:02.451Z,67.8
2023-03-11T10:19:04.055Z,67.8
2023-03-11T10:20:05.651Z,67.4
2023-03-11T10:21:06.365Z,67.1
2023-03-11T10:22:07.490Z,66.9
2023-03-11T10:23:08.483Z,66.8
2023-03-11T10:24:09.539Z,66.3
2023-03-11T10:25:10.488Z,65.7
2023-03-11T10:26:11.390Z,64.9
2023-03-11T10:27:12.398Z,65
2023-03-11T10:28:13.411Z,65.1
2023-03-11T10:29:14.530Z,64.5
2023-03-11T10:30:15.473Z,63.6
2023-03-11T10:31:16.604Z,63.8
2023-03-11T10:32:17.765Z,63.9
2023-03-11T10:33:18.700Z,63.3
2023-03-11T10:34:19.445Z,63
2023-03-11T10:35:20.436Z,62.9
2023-03-11T10:36:21.493Z,62.8
2023-03-11T10:37:22.480Z,61.7
2023-03-11T10:38:23.511Z,61.1
2023-03-11T10:39:24.550Z,61.6
2023-03-11T10:40:25.422Z,61.8
2023-03-11T10:41:26.639Z,61.4
2023-03-11T10:42:27.432Z,61.5
2023-03-11T10:43:28.472Z,60.9
2023-03-11T10:44:29.434Z,61.5
2023-03-11T10:45:30.493Z,62
2023-03-11T10:46:31.479Z,61.3
2023-03-11T10:47:32.451Z,61.2
2023-03-11T10:48:33.559Z,60.8
2023-03-11T10:49:34.512Z,61.1
2023-03-11T10:50:36.587Z,61.5
2023-03-11T10:51:36.671Z,61.6
2023-03-11T10:52:37.412Z,61.8
2023-03-11T10:53:38.452Z,62.9
2023-03-11T10:54:39.543Z,63.4
2023-03-11T10:55:40.491Z,63.6
2023-03-11T10:56:41.570Z,64
2023-03-11T10:57:42.733Z,64.5
2023-03-11T10:58:43.554Z,64.7
2023-03-11T10:59:44.520Z,63.8
2023-03-11T11:00:45.604Z,63.2
2023-03-11T11:01:46.596Z,62
2023-03-11T11:02:47.419Z,61.6
2023-03-11T11:03:48.488Z,61.7
2023-03-11T11:04:49.456Z,61.3
2023-03-11T11:05:50.482Z,60.7
2023-03-11T11:06:51.473Z,59.7
2023-03-11T11:07:52.415Z,59.9
2023-03-11T11:08:53.458Z,60.5
2023-03-11T11:09:54.438Z,60.7
2023-03-11T11:10:55.477Z,58.6
2023-03-11T11:11:56.409Z,58.4
2023-03-11T11:12:57.549Z,57.4
2023-03-11T11:13:58.436Z,57.9
2023-03-11T11:14:59.497Z,57.8
2023-03-11T11:16:00.486Z,58.4
2023-03-11T11:17:01.488Z,58.2
2023-03-11T11:18:02.484Z,58.4
2023-03-11T11:19:03.529Z,59.1
2023-03-11T11:20:04.460Z,59.5
2023-03-11T11:21:05.474Z,60.5
2023-03-11T11:22:06.490Z,60.9
2023-03-11T11:23:07.397Z,61.4
2023-03-11T11:24:08.538Z,62.1
2023-03-11T11:25:09.590Z,62.5
2023-03-11T11:26:10.619Z,62.4
2023-03-11T11:27:11.614Z,61.3
2023-03-11T11:28:12.470Z,61.1
2023-03-11T11:29:13.441Z,60.3
2023-03-11T11:30:14.381Z,59.5
2023-03-11T11:31:15.519Z,59.5
2023-03-11T11:32:16.467Z,59.1
2023-03-11T11:33:17.465Z,58.3
2023-03-11T11:34:18.472Z,58.5
2023-03-11T11:35:19.546Z,58.3
2023-03-11T11:36:20.708Z,58.4
2023-03-11T11:37:21.457Z,58.4
2023-03-11T11:38:22.541Z,58.8
2023-03-11T11:39:23.518Z,59.1
2023-03-11T11:40:24.532Z,59.3
2023-03-11T11:41:25.474Z,59.5
2023-03-11T11:42:26.402Z,59.2
2023-03-11T11:43:27.472Z,59.2
2023-03-11T11:44:28.614Z,59.8
2023-03-11T11:45:29.459Z,59.4
2023-03-11T11:46:30.581Z,59
2023-03-11T11:47:31.471Z,57.8
2023-03-11T11:48:32.457Z,57.7
2023-03-11T11:49:33.537Z,57.3
2023-03-11T11:50:34.616Z,58
2023-03-11T11:51:35.495Z,58.4
2023-03-11T11:52:36.520Z,57.8
2023-03-11T11:53:38.125Z,56.5
2023-03-11T11:54:39.554Z,57.1
2023-03-11T11:55:40.508Z,57.3
2023-03-11T11:56:41.495Z,56.2
2023-03-11T11:57:42.573Z,55.8
2023-03-11T11:58:43.452Z,56.1
2023-03-11T11:59:44.610Z,56.3
2023-03-11T12:00:45.478Z,54.8
2023-03-11T12:01:46.572Z,55.4
2023-03-11T12:02:47.551Z,55.6
2023-03-11T12:03:48.521Z,55.8
2023-03-11T12:04:49.541Z,56.2
2023-03-11T12:05:50.562Z,56.2
2023-03-11T12:06:51.551Z,56.1
2023-03-11T12:07:52.478Z,56.6
2023-03-11T12:08:53.414Z,54.8
2023-03-11T12:09:54.571Z,55
2023-03-11T12:10:55.572Z,54.4
2023-03-11T12:11:56.473Z,53.7
2023-03-11T12:12:57.592Z,51.9
2023-03-11T12:13:58.459Z,52
2023-03-11T12:14:59.555Z,52.8
2023-03-11T12:16:00.617Z,53.9
2023-03-11T12:17:03.838Z,53.7
2023-03-11T12:18:02.456Z,53.7
2023-03-11T12:19:03.460Z,53.5
2023-03-11T12:20:04.564Z,53.1
2023-03-11T12:21:05.492Z,53.4
2023-03-11T12:22:06.531Z,54.1
2023-03-11T12:23:07.669Z,52.8
2023-03-11T12:24:08.587Z,51.8
2023-03-11T12:25:09.550Z,51.6
2023-03-11T12:26:10.510Z,50.5
2023-03-11T12:27:11.740Z,49.7
2023-03-11T12:28:12.634Z,50.4
2023-03-11T12:29:15.980Z,50.8
2023-03-11T12:30:15.582Z,49.9
2023-03-11T12:31:16.574Z,50.3
2023-03-11T12:32:17.577Z,50.8
2023-03-11T12:33:18.512Z,50.4
2023-03-11T12:34:19.513Z,50.9
2023-03-11T12:35:20.930Z,50.8
2023-03-11T12:36:22.619Z,51.2
2023-03-11T12:37:23.558Z,51.5
2023-03-11T12:38:24.642Z,50.4
2023-03-11T12:39:25.492Z,50.2
2023-03-11T12:40:26.607Z,50.5
2023-03-11T12:41:27.599Z,51.5
2023-03-11T12:42:28.633Z,51.6
2023-03-11T12:43:29.541Z,52.1
2023-03-11T12:44:30.499Z,53.2
2023-03-11T12:45:31.576Z,52.9
2023-03-11T12:46:32.573Z,51.5
2023-03-11T12:47:35.667Z,50.7
2023-03-11T12:48:34.793Z,50.8
2023-03-11T12:49:35.775Z,51.8
2023-03-11T12:50:36.601Z,55.5
2023-03-11T12:51:37.544Z,59.9
2023-03-11T12:52:38.471Z,62.2
2023-03-11T12:53:39.756Z,62.7
2023-03-11T12:54:40.682Z,61.8
2023-03-11T12:55:41.528Z,61.7
2023-03-11T12:56:42.520Z,61.1
2023-03-11T12:57:43.554Z,61.4
2023-03-11T12:58:44.557Z,61.2
2023-03-11T12:59:45.640Z,60.9
2023-03-11T13:00:46.783Z,60.1
2023-03-11T13:01:47.581Z,60.3
2023-03-11T13:02:48.718Z,59.8
2023-03-11T13:03:49.597Z,58.4
2023-03-11T13:04:50.876Z,57.4
2023-03-11T13:05:51.606Z,57.3
2023-03-11T13:06:52.587Z,56.4
2023-03-11T13:07:53.516Z,56.6
2023-03-11T13:08:54.500Z,56.6
2023-03-11T13:09:55.697Z,56
2023-03-11T13:10:56.601Z,55.9
2023-03-11T13:11:57.537Z,55.9
2023-03-11T13:12:58.503Z,55.6
2023-03-11T13:13:59.615Z,54.8
2023-03-11T13:15:02.423Z,54.9
2023-03-11T13:16:01.703Z,52.4
2023-03-11T13:17:02.627Z,52.7
2023-03-11T13:18:03.544Z,52.8
2023-03-11T13:19:04.541Z,52.7
2023-03-11T13:20:05.582Z,53.1
2023-03-11T13:21:06.692Z,53.5
2023-03-11T13:22:07.607Z,51.4
2023-03-11T13:23:08.609Z,50.2
2023-03-11T13:24:09.580Z,50.1
2023-03-11T13:25:10.641Z,49.8
2023-03-11T13:26:11.601Z,49.2
2023-03-11T13:27:12.560Z,50.2
2023-03-11T13:28:13.580Z,50.9
2023-03-11T13:29:14.558Z,50.8
2023-03-11T13:30:15.720Z,50.7
2023-03-11T13:31:16.610Z,51.3
2023-03-11T13:32:17.671Z,52.4
2023-03-11T13:33:18.602Z,53.5
2023-03-11T13:34:19.590Z,54
2023-03-11T13:35:20.560Z,54
2023-03-11T13:36:21.579Z,54.7
2023-03-11T13:37:22.540Z,55.1
2023-03-11T13:38:23.583Z,55
2023-03-11T13:39:24.534Z,54.9
2023-03-11T13:40:25.559Z,55.5